Time;durP1;ratioP1;P1;durP2;ratioP2;P2;SDS_P1;SDS_P2;PMS_P1;PMS_P2;Temp;Humidity;BMP_temperature;BMP_pressure;BME280_temperature;BME280_humidity;BME280_pressure;Samples;Min_cycle;Max_cycle;Signal;HPM_P1;HPM_P2
2022/04/27 00:01:24;;;;;;;10.87;5.83;;;9.60;99.90;;;;;;5061351;28;20461;-84
2022/04/27 00:03:51;;;;;;;9.67;5.47;;;9.60;99.90;;;;;;5061474;28;20548;-82
2022/04/27 00:06:18;;;;;;;7.97;5.30;;;9.60;99.90;;;;;;5061351;28;20545;-83
2022/04/27 00:08:44;;;;;;;7.90;5.07;;;9.60;99.90;;;;;;5060175;28;20490;-83
2022/04/27 00:11:12;;;;;;;7.40;4.77;;;9.60;99.90;;;;;;5061362;28;20457;-84
2022/04/27 00:13:40;;;;;;;7.17;4.70;;;9.50;99.90;;;;;;5060367;28;20459;-81
2022/04/27 00:16:07;;;;;;;8.97;4.70;;;9.60;99.90;;;;;;5061677;28;20477;-83
2022/04/27 00:18:34;;;;;;;7.93;5.70;;;9.50;99.90;;;;;;5062373;28;20488;-83
2022/04/27 00:21:01;;;;;;;8.47;5.47;;;9.60;99.90;;;;;;5060708;28;20497;-85
2022/04/27 00:23:29;;;;;;;11.53;5.27;;;9.50;99.90;;;;;;5061485;28;20942;-84
2022/04/27 00:25:56;;;;;;;9.80;5.93;;;9.50;99.90;;;;;;5060952;28;20466;-85
2022/04/27 00:28:24;;;;;;;8.53;5.20;;;9.60;99.90;;;;;;5061803;28;20457;-84
2022/04/27 00:30:51;;;;;;;8.13;5.73;;;9.50;99.90;;;;;;5061273;28;20466;-85
2022/04/27 00:33:18;;;;;;;7.93;5.50;;;9.50;99.90;;;;;;5062225;28;20469;-85
2022/04/27 00:35:45;;;;;;;8.93;4.70;;;9.50;99.90;;;;;;5061349;28;20459;-86
2022/04/27 00:38:12;;;;;;;10.37;5.93;;;9.50;99.90;;;;;;5061383;28;20466;-86
2022/04/27 00:40:39;;;;;;;6.00;5.03;;;9.50;99.90;;;;;;5064607;28;20484;-83
2022/04/27 00:43:06;;;;;;;9.83;4.90;;;9.50;99.90;;;;;;5075004;28;20992;-86
2022/04/27 00:45:34;;;;;;;5.30;4.77;;;9.50;99.90;;;;;;5058380;28;20450;-85
2022/04/27 00:48:00;;;;;;;7.20;4.67;;;9.40;99.90;;;;;;5057854;28;20506;-85
2022/04/27 00:50:29;;;;;;;7.90;5.00;;;9.40;99.90;;;;;;5058073;28;20541;-84
2022/04/27 00:52:56;;;;;;;7.20;5.30;;;9.30;99.90;;;;;;5056382;28;20461;-83
2022/04/27 00:55:23;;;;;;;9.40;5.30;;;9.20;99.90;;;;;;5057101;28;20858;-84
2022/04/27 00:57:51;;;;;;;8.00;5.23;;;9.20;99.90;;;;;;5055524;28;20520;-84
2022/04/27 01:00:18;;;;;;;5.57;5.07;;;9.20;99.90;;;;;;5055831;28;20580;-85
2022/04/27 01:02:46;;;;;;;7.87;4.93;;;9.10;99.90;;;;;;5057052;28;20462;-84
2022/04/27 01:05:13;;;;;;;6.50;5.00;;;9.10;99.90;;;;;;5056672;28;20548;-84
2022/04/27 01:07:41;;;;;;;7.80;6.20;;;9.20;99.90;;;;;;5056273;28;20564;-84
2022/04/27 01:10:10;;;;;;;7.00;4.90;;;9.10;99.90;;;;;;5056309;28;20477;-84
2022/04/27 01:12:37;;;;;;;6.77;5.00;;;9.00;99.90;;;;;;5055965;28;20457;-85
2022/04/27 01:15:05;;;;;;;8.00;6.00;;;9.00;99.90;;;;;;5056645;28;20467;-82
2022/04/27 01:17:31;;;;;;;8.10;6.03;;;9.00;99.90;;;;;;5055690;28;20484;-84
2022/04/27 01:20:00;;;;;;;8.73;5.40;;;9.00;99.90;;;;;;5055763;28;20515;-83
2022/04/27 01:22:29;;;;;;;7.87;5.30;;;8.90;99.90;;;;;;5057440;28;20460;-84
2022/04/27 01:24:56;;;;;;;8.60;5.57;;;8.90;99.90;;;;;;5057286;28;20502;-82
2022/04/27 01:27:23;;;;;;;7.30;5.80;;;8.80;99.90;;;;;;5058107;28;20477;-84
2022/04/27 01:29:50;;;;;;;10.47;5.13;;;8.70;99.90;;;;;;5036997;28;20448;-83
2022/04/27 01:32:17;;;;;;;10.10;5.20;;;8.70;99.90;;;;;;5037325;28;20466;-83
2022/04/27 01:34:44;;;;;;;8.63;5.20;;;8.70;99.90;;;;;;5042768;28;20464;-83
2022/04/27 01:39:56;;;;;;;11.00;5.77;;;8.60;99.90;;;;;;5056524;28;20556;-84
2022/04/27 01:42:23;;;;;;;9.83;5.00;;;8.50;99.90;;;;;;5056720;28;20454;-84
2022/04/27 01:44:50;;;;;;;9.03;4.63;;;8.50;99.90;;;;;;5056476;28;20453;-83
2022/04/27 01:47:17;;;;;;;7.23;5.23;;;8.50;99.90;;;;;;5055910;28;20936;-83
2022/04/27 01:49:43;;;;;;;6.37;5.00;;;8.40;99.90;;;;;;5055738;28;20482;-84
2022/04/27 01:54:56;;;;;;;12.60;5.90;;;8.40;99.90;;;;;;5056008;28;20435;-85
2022/04/27 01:57:23;;;;;;;5.93;5.23;;;8.30;99.90;;;;;;5055430;28;20844;-84
2022/04/27 01:59:49;;;;;;;8.83;6.03;;;8.20;99.90;;;;;;5055408;28;20491;-84
2022/04/27 02:02:19;;;;;;;9.47;5.60;;;8.20;99.90;;;;;;5055587;28;20460;-83
2022/04/27 02:04:46;;;;;;;10.50;6.00;;;8.20;99.90;;;;;;5055747;28;20457;-84
2022/04/27 02:07:13;;;;;;;7.37;5.83;;;8.20;99.90;;;;;;5055754;28;20472;-83
2022/04/27 02:09:40;;;;;;;9.03;5.83;;;8.20;99.90;;;;;;5055928;28;20542;-81
2022/04/27 02:12:09;;;;;;;6.97;5.30;;;8.30;99.90;;;;;;5055408;28;20458;-84
2022/04/27 02:14:40;;;;;;;8.00;5.20;;;8.20;99.90;;;;;;5056960;28;20916;-82
2022/04/27 02:17:08;;;;;;;8.27;6.03;;;8.20;99.90;;;;;;5058070;28;20448;-84
2022/04/27 02:19:36;;;;;;;8.10;5.23;;;8.20;99.90;;;;;;5058122;28;20480;-84
2022/04/27 02:22:04;;;;;;;9.40;5.70;;;8.20;99.90;;;;;;5058772;28;20459;-83
2022/04/27 02:24:34;;;;;;;7.77;5.20;;;8.20;99.90;;;;;;5058583;28;20463;-83
2022/04/27 02:27:01;;;;;;;7.53;5.97;;;8.20;99.90;;;;;;5058938;28;20480;-83
2022/04/27 02:29:29;;;;;;;15.43;5.40;;;8.10;99.90;;;;;;5058537;28;20955;-83
2022/04/27 02:31:56;;;;;;;8.37;5.63;;;8.10;99.90;;;;;;5058808;28;20477;-85
2022/04/27 02:34:23;;;;;;;7.53;6.13;;;8.00;99.90;;;;;;5059100;28;20536;-84
2022/04/27 02:36:50;;;;;;;8.30;5.97;;;7.90;99.90;;;;;;5059056;28;20507;-85
2022/04/27 02:39:17;;;;;;;8.03;5.43;;;7.80;99.90;;;;;;5059013;28;20464;-82
2022/04/27 02:41:50;;;;;;;8.73;5.90;;;7.70;99.90;;;;;;5057766;28;20515;-85
2022/04/27 02:44:19;;;;;;;7.40;5.30;;;7.60;99.90;;;;;;5060281;28;20464;-83
2022/04/27 02:46:51;;;;;;;7.40;5.90;;;7.50;99.90;;;;;;5060012;28;20494;-84
2022/04/27 02:52:03;;;;;;;7.43;5.70;;;7.30;99.90;;;;;;5060343;28;20462;-85
2022/04/27 02:54:30;;;;;;;8.77;5.93;;;7.20;99.90;;;;;;5060262;28;20476;-85
2022/04/27 02:57:00;;;;;;;8.87;6.33;;;7.10;99.90;;;;;;5067439;28;20480;-86
2022/04/27 02:59:29;;;;;;;7.50;6.40;;;7.00;99.90;;;;;;5066701;28;20453;-83
2022/04/27 03:02:01;;;;;;;10.30;7.00;;;7.00;99.90;;;;;;5055243;28;20507;-84
2022/04/27 03:04:28;;;;;;;7.70;6.30;;;6.90;99.90;;;;;;5054564;28;20466;-82
2022/04/27 03:06:55;;;;;;;9.23;6.60;;;6.90;99.90;;;;;;5054637;28;21016;-84
2022/04/27 03:09:27;;;;;;;8.13;6.90;;;6.80;99.90;;;;;;5054278;28;20561;-84
2022/04/27 03:11:54;;;;;;;11.10;5.43;;;6.80;99.90;;;;;;5055048;28;20460;-84
2022/04/27 03:14:21;;;;;;;7.57;5.43;;;6.80;99.90;;;;;;5054577;28;20490;-83
2022/04/27 03:16:48;;;;;;;8.43;6.67;;;6.80;99.90;;;;;;5054112;28;20482;-84
2022/04/27 03:19:20;;;;;;;7.10;6.40;;;6.80;99.90;;;;;;5053417;28;20467;-83
2022/04/27 03:21:47;;;;;;;7.77;6.33;;;6.70;99.90;;;;;;5053307;28;20490;-84
2022/04/27 03:24:17;;;;;;;10.10;9.10;;;6.70;99.90;;;;;;5054036;28;20487;-84
2022/04/27 03:26:44;;;;;;;11.30;6.20;;;6.70;99.90;;;;;;5054248;28;20494;-84
2022/04/27 03:29:13;;;;;;;11.03;7.10;;;6.80;99.90;;;;;;5053965;28;21017;-83
2022/04/27 03:31:40;;;;;;;9.60;7.23;;;6.70;99.90;;;;;;5033843;28;20471;-83
2022/04/27 03:34:06;;;;;;;8.93;7.60;;;6.70;99.90;;;;;;5033984;28;20490;-85
2022/04/27 03:36:35;;;;;;;15.33;6.70;;;6.70;99.90;;;;;;5051023;28;20476;-84
2022/04/27 03:39:01;;;;;;;8.23;6.93;;;6.80;99.90;;;;;;5054269;28;20569;-84
2022/04/27 03:41:29;;;;;;;10.53;7.00;;;6.80;99.90;;;;;;5053800;28;20581;-83
2022/04/27 03:43:56;;;;;;;7.80;6.40;;;6.80;99.90;;;;;;5053419;28;21037;-83
2022/04/27 03:46:25;;;;;;;8.50;6.30;;;6.80;99.90;;;;;;5053424;28;20480;-84
2022/04/27 03:48:52;;;;;;;9.63;6.90;;;6.70;99.90;;;;;;5053757;28;20553;-82
2022/04/27 03:51:19;;;;;;;9.17;7.77;;;6.70;99.90;;;;;;5053988;28;20463;-83
2022/04/27 03:53:51;;;;;;;9.17;6.53;;;6.70;99.90;;;;;;5054516;28;20803;-82
2022/04/27 03:56:17;;;;;;;9.17;7.07;;;6.60;99.90;;;;;;5054128;28;20531;-84
2022/04/27 03:58:44;;;;;;;8.70;7.33;;;6.60;99.90;;;;;;5054222;28;20542;-84
2022/04/27 04:01:11;;;;;;;9.13;7.43;;;6.50;99.90;;;;;;5053941;28;20530;-83
2022/04/27 04:03:40;;;;;;;13.00;8.97;;;6.50;99.90;;;;;;5053358;28;20493;-83
2022/04/27 04:06:07;;;;;;;10.77;8.00;;;6.50;99.90;;;;;;5053794;28;20483;-84
2022/04/27 04:08:34;;;;;;;10.13;7.07;;;6.50;99.90;;;;;;5054100;28;20447;-84
2022/04/27 04:11:02;;;;;;;9.93;8.13;;;6.40;99.90;;;;;;5054086;28;20544;-84
2022/04/27 04:13:29;;;;;;;9.40;8.07;;;6.40;99.90;;;;;;5057020;28;20532;-83
2022/04/27 04:15:56;;;;;;;10.23;7.90;;;6.40;99.90;;;;;;5057612;28;20486;-84
2022/04/27 04:18:23;;;;;;;11.50;8.40;;;6.30;99.90;;;;;;5057495;28;20457;-84
2022/04/27 04:20:49;;;;;;;12.63;8.50;;;6.30;99.90;;;;;;5057392;28;20595;-83
2022/04/27 04:23:16;;;;;;;11.93;8.30;;;6.30;99.90;;;;;;5057155;28;20455;-85
2022/04/27 04:28:31;;;;;;;11.10;8.30;;;6.30;99.90;;;;;;5057671;28;20535;-81
2022/04/27 04:30:59;;;;;;;11.93;9.50;;;6.30;99.90;;;;;;5057625;28;20459;-84
2022/04/27 04:33:26;;;;;;;12.53;10.33;;;6.30;99.90;;;;;;5058682;28;20460;-84
2022/04/27 04:35:53;;;;;;;12.00;9.00;;;6.30;99.90;;;;;;5060105;28;20489;-84
2022/04/27 04:38:20;;;;;;;23.93;11.03;;;6.30;99.90;;;;;;5060056;28;20987;-83
2022/04/27 04:40:47;;;;;;;12.67;9.60;;;6.40;99.90;;;;;;5059942;28;20843;-84
2022/04/27 04:43:14;;;;;;;21.93;13.30;;;6.50;99.90;;;;;;5061075;28;20959;-83
2022/04/27 04:45:42;;;;;;;17.13;9.93;;;6.50;99.90;;;;;;5060366;28;20494;-84
2022/04/27 04:48:09;;;;;;;14.97;8.60;;;6.60;99.90;;;;;;5060771;28;20435;-84
2022/04/27 04:50:36;;;;;;;16.50;10.43;;;6.70;99.90;;;;;;5060567;28;20483;-86
2022/04/27 04:53:04;;;;;;;14.93;9.13;;;6.70;99.90;;;;;;5061306;28;20519;-86
2022/04/27 04:55:31;;;;;;;12.30;9.57;;;6.80;99.90;;;;;;5061665;28;20901;-85
2022/04/27 04:57:58;;;;;;;12.77;9.23;;;7.00;99.90;;;;;;5061093;28;20472;-84
2022/04/27 05:00:25;;;;;;;15.83;9.83;;;7.00;99.90;;;;;;5042557;28;20486;-85
2022/04/27 05:02:54;;;;;;;15.07;11.00;;;7.00;99.90;;;;;;5060695;28;20956;-83
2022/04/27 05:05:21;;;;;;;20.23;13.33;;;7.10;99.90;;;;;;5061446;28;20504;-85
2022/04/27 05:07:48;;;;;;;20.03;11.20;;;7.20;99.90;;;;;;5054791;28;20476;-86
2022/04/27 05:10:15;;;;;;;14.67;8.80;;;7.20;99.90;;;;;;5062141;28;20526;-83
2022/04/27 05:12:42;;;;;;;12.63;9.73;;;7.20;99.90;;;;;;5070100;28;21052;-87
2022/04/27 05:15:11;;;;;;;13.63;10.53;;;7.30;99.90;;;;;;5070362;28;20451;-83
2022/04/27 05:17:38;;;;;;;13.83;10.57;;;7.30;99.90;;;;;;5057617;28;20614;-84
2022/04/27 05:20:08;;;;;;;14.93;10.63;;;7.40;99.90;;;;;;5056127;28;20521;-83
2022/04/27 05:22:39;;;;;;;11.27;9.33;;;7.40;99.90;;;;;;5086204;22;20503;-80
2022/04/27 05:25:08;;;;;;;10.97;8.90;;;7.40;99.90;;;;;;5056975;28;20828;-80
2022/04/27 05:27:35;;;;;;;15.03;10.20;;;7.50;99.90;;;;;;5055306;28;20495;-81
2022/04/27 05:32:47;;;;;;;10.80;9.07;;;7.70;99.90;;;;;;5056498;28;20539;-78
2022/04/27 05:35:15;;;;;;;14.07;10.23;;;7.70;99.90;;;;;;5057370;28;20968;-83
2022/04/27 05:37:43;;;;;;;11.77;9.13;;;7.70;99.90;;;;;;5052918;28;20473;-79
2022/04/27 05:40:11;;;;;;;13.03;8.93;;;7.70;99.90;;;;;;5054608;28;20511;-83
2022/04/27 05:45:26;;;;;;;12.73;10.03;;;7.90;99.90;;;;;;5051110;28;20870;-83
2022/04/27 05:47:53;;;;;;;13.23;8.80;;;7.90;99.90;;;;;;5049823;28;20455;-79
2022/04/27 05:50:21;;;;;;;11.67;9.60;;;7.90;99.90;;;;;;5052472;28;20450;-83
2022/04/27 05:52:50;;;;;;;10.27;9.23;;;7.90;99.90;;;;;;5055228;28;20486;-79
2022/04/27 05:55:17;;;;;;;12.70;9.83;;;7.90;99.90;;;;;;5043657;28;20453;-79
2022/04/27 05:57:43;;;;;;;12.73;10.00;;;8.00;99.90;;;;;;5055646;28;20531;-81
2022/04/27 06:00:13;;;;;;;14.50;9.83;;;8.10;99.90;;;;;;5054109;28;20456;-82
2022/04/27 06:02:40;;;;;;;11.23;8.70;;;8.10;99.90;;;;;;5052884;28;20491;-81
2022/04/27 06:05:15;;;;;;;12.60;9.63;;;8.10;99.90;;;;;;5053287;28;20509;-81
2022/04/27 06:07:44;;;;;;;11.40;9.60;;;8.20;99.90;;;;;;5051010;28;20458;-81
2022/04/27 06:10:12;;;;;;;15.30;10.20;;;8.30;99.90;;;;;;5050734;28;20539;-80
2022/04/27 06:12:46;;;;;;;11.83;10.60;;;8.40;99.90;;;;;;5054135;28;20472;-78
2022/04/27 06:15:14;;;;;;;11.50;9.30;;;8.50;99.90;;;;;;5053182;28;20464;-78
2022/04/27 06:17:41;;;;;;;12.10;9.07;;;8.50;99.90;;;;;;5053617;28;20456;-80
2022/04/27 06:20:09;;;;;;;12.83;9.07;;;8.50;99.90;;;;;;5056346;28;20465;-78
2022/04/27 06:22:47;;;;;;;10.13;8.33;;;8.60;99.90;;;;;;5049656;28;20695;-79
2022/04/27 06:25:13;;;;;;;11.83;9.77;;;8.60;99.90;;;;;;5049639;28;20451;-78
2022/04/27 06:27:44;;;;;;;12.00;9.60;;;8.80;99.90;;;;;;5055692;28;20461;-81
2022/04/27 06:30:12;;;;;;;12.43;9.70;;;8.90;99.90;;;;;;5054758;28;20457;-77
2022/04/27 06:33:03;;;;;;;12.17;8.10;;;9.00;99.90;;;;;;5056226;28;21194;-78
2022/04/27 06:35:35;;;;;;;10.70;8.23;;;9.10;99.90;;;;;;5053427;28;20458;-79
2022/04/27 06:38:03;;;;;;;10.43;8.33;;;9.20;99.90;;;;;;5053041;28;20501;-81
2022/04/27 06:40:30;;;;;;;14.30;8.30;;;9.20;99.90;;;;;;5055164;28;20445;-77
2022/04/27 06:43:00;;;;;;;12.20;9.33;;;9.40;99.90;;;;;;5055679;28;21081;-78
2022/04/27 06:45:28;;;;;;;14.40;8.90;;;9.40;99.90;;;;;;5056207;28;20458;-78
2022/04/27 06:47:57;;;;;;;11.10;7.50;;;9.40;99.90;;;;;;5055971;28;21024;-82
2022/04/27 06:50:25;;;;;;;12.47;8.47;;;9.40;99.90;;;;;;5050224;28;20490;-82
2022/04/27 06:52:52;;;;;;;9.50;7.60;;;9.60;99.90;;;;;;5054746;28;20504;-78
2022/04/27 06:55:20;;;;;;;10.60;7.37;;;9.70;99.90;;;;;;5056001;28;20489;-78
2022/04/27 06:57:47;;;;;;;8.63;6.80;;;9.80;99.90;;;;;;5055692;28;20942;-81
2022/04/27 07:00:15;;;;;;;10.03;6.60;;;9.90;99.90;;;;;;5054685;28;20445;-79
2022/04/27 07:02:41;;;;;;;10.10;6.73;;;10.00;99.90;;;;;;5056059;28;20860;-78
2022/04/27 07:05:16;;;;;;;11.63;7.70;;;10.00;99.90;;;;;;5056025;28;20893;-77
2022/04/27 07:07:43;;;;;;;12.10;7.67;;;10.00;99.90;;;;;;5053579;28;20544;-81
2022/04/27 07:10:11;;;;;;;12.87;7.07;;;10.10;99.90;;;;;;5043316;28;20962;-81
2022/04/27 07:12:40;;;;;;;7.90;6.43;;;10.10;99.90;;;;;;5054107;28;20471;-82
2022/04/27 07:15:08;;;;;;;10.70;7.37;;;10.20;99.90;;;;;;5056531;28;20449;-80
2022/04/27 07:17:35;;;;;;;8.90;6.97;;;10.30;99.90;;;;;;5055688;28;20469;-81
2022/04/27 07:20:04;;;;;;;9.97;6.77;;;10.40;99.90;;;;;;5053558;28;20449;-78
2022/04/27 07:22:30;;;;;;;10.67;7.57;;;10.50;99.90;;;;;;5055643;28;20499;-78
2022/04/27 07:24:57;;;;;;;12.00;7.30;;;10.60;99.90;;;;;;5058071;28;20452;-79
2022/04/27 07:27:25;;;;;;;11.17;7.60;;;10.70;99.90;;;;;;5056103;28;20466;-79
2022/04/27 07:29:53;;;;;;;8.73;6.60;;;10.80;99.90;;;;;;5054699;28;20459;-81
2022/04/27 07:32:20;;;;;;;8.27;6.83;;;10.90;99.90;;;;;;5050573;28;20471;-83
2022/04/27 07:34:46;;;;;;;9.43;6.53;;;11.00;99.90;;;;;;5051953;28;21038;-80
2022/04/27 07:37:13;;;;;;;12.13;6.13;;;11.30;99.90;;;;;;5050203;28;20897;-82
2022/04/27 07:39:40;;;;;;;10.87;7.50;;;11.30;99.90;;;;;;5050994;28;20454;-80
2022/04/27 07:42:07;;;;;;;7.50;6.10;;;11.40;99.90;;;;;;5049983;28;20489;-79
2022/04/27 07:44:34;;;;;;;8.03;7.10;;;11.50;99.90;;;;;;5053986;28;20455;-80
2022/04/27 07:47:02;;;;;;;10.63;6.80;;;11.80;99.90;;;;;;5052768;28;20454;-77
2022/04/27 07:49:29;;;;;;;9.37;6.93;;;12.00;99.90;;;;;;5057691;28;20535;-82
2022/04/27 07:51:55;;;;;;;7.70;6.53;;;12.10;99.90;;;;;;5054837;28;20481;-80
2022/04/27 07:54:22;;;;;;;8.50;5.70;;;12.20;99.90;;;;;;5057582;28;20889;-83
2022/04/27 07:56:49;;;;;;;11.23;5.50;;;12.20;99.90;;;;;;5058373;28;20461;-81
2022/04/27 07:59:16;;;;;;;10.83;5.93;;;12.40;99.90;;;;;;5056235;28;20490;-82
2022/04/27 08:01:43;;;;;;;7.20;5.93;;;12.60;99.90;;;;;;5040295;28;21014;-80
2022/04/27 08:04:11;;;;;;;11.50;5.70;;;13.20;99.90;;;;;;5058275;28;20465;-82
2022/04/27 08:06:37;;;;;;;9.27;4.97;;;13.80;99.90;;;;;;5057894;28;20549;-80
2022/04/27 08:09:04;;;;;;;6.13;4.83;;;14.70;99.90;;;;;;5058260;28;20447;-79
2022/04/27 08:11:31;;;;;;;10.03;5.40;;;14.90;99.90;;;;;;5057426;28;20550;-80
2022/04/27 08:13:58;;;;;;;7.00;5.03;;;15.50;99.90;;;;;;5059462;28;20474;-81
2022/04/27 08:16:25;;;;;;;8.67;4.40;;;16.20;99.90;;;;;;5059322;28;20943;-80
2022/04/27 08:18:51;;;;;;;7.60;4.60;;;18.20;99.90;;;;;;5061625;28;20458;-81
2022/04/27 08:21:21;;;;;;;7.83;4.47;;;19.90;99.90;;;;;;5059372;28;20484;-80
2022/04/27 08:23:49;;;;;;;5.80;4.67;;;21.10;99.90;;;;;;5059709;28;20991;-80
2022/04/27 08:26:16;;;;;;;7.50;4.20;;;22.30;99.90;;;;;;5059997;28;20950;-80
2022/04/27 08:28:44;;;;;;;9.67;5.60;;;22.90;99.00;;;;;;5061543;28;20477;-83
2022/04/27 08:31:13;;;;;;;6.43;5.73;;;22.90;94.90;;;;;;5059326;28;20505;-79
2022/04/27 08:33:40;;;;;;;7.03;5.00;;;23.10;94.40;;;;;;5052258;28;20444;-81
2022/04/27 08:36:07;;;;;;;6.40;5.40;;;23.70;91.80;;;;;;5060608;28;20201;-80
2022/04/27 08:38:37;;;;;;;7.17;5.30;;;23.90;86.60;;;;;;5062362;28;20958;-83
2022/04/27 08:41:04;;;;;;;7.40;5.20;;;23.30;82.20;;;;;;5057534;28;20547;-80
2022/04/27 08:43:31;;;;;;;8.33;4.27;;;23.80;86.00;;;;;;5060094;28;20552;-82
2022/04/27 08:46:02;;;;;;;7.93;4.73;;;22.40;75.60;;;;;;5044981;28;20469;-82
2022/04/27 08:48:30;;;;;;;49.23;44.33;;;24.40;90.10;;;;;;5056305;28;20834;-79
2022/04/27 08:50:57;;;;;;;10.60;5.13;;;23.80;79.10;;;;;;5051583;28;20496;-79
2022/04/27 08:53:24;;;;;;;8.03;5.10;;;24.60;74.00;;;;;;5048600;28;20538;-81
2022/04/27 08:55:53;;;;;;;5.67;5.10;;;24.50;72.00;;;;;;5058964;28;20443;-78
2022/04/27 08:58:22;;;;;;;9.90;4.00;;;25.10;72.00;;;;;;5054116;28;20470;-80
2022/04/27 09:00:49;;;;;;;6.40;4.70;;;26.90;71.40;;;;;;5053774;28;20463;-82
2022/04/27 09:03:26;;;;;;;6.53;4.73;;;26.60;66.30;;;;;;5062239;28;20475;-79
2022/04/27 09:05:54;;;;;;;5.70;4.57;;;27.40;73.30;;;;;;5053937;28;20451;-84
2022/04/27 09:08:21;;;;;;;8.90;4.73;;;27.80;67.10;;;;;;5065989;28;20451;-80
2022/04/27 09:10:48;;;;;;;12.37;10.30;;;26.50;69.10;;;;;;5069741;28;20447;-84
2022/04/27 09:13:16;;;;;;;7.43;5.17;;;27.40;85.70;;;;;;5065877;28;20452;-82
2022/04/27 09:15:43;;;;;;;6.90;4.80;;;27.70;78.10;;;;;;5066614;28;20498;-83
2022/04/27 09:21:01;;;;;;;7.03;3.93;;;28.80;58.20;;;;;;5044854;28;20420;-83
2022/04/27 09:23:36;;;;;;;5.87;5.37;;;29.00;57.30;;;;;;5048023;28;20499;-80
2022/04/27 09:26:19;;;;;;;7.50;4.90;;;29.00;57.40;;;;;;5052075;28;20456;-79
2022/04/27 09:28:49;;;;;;;6.13;5.40;;;28.80;54.50;;;;;;5054239;28;20452;-83
2022/04/27 09:31:30;;;;;;;5.47;4.00;;;28.00;55.60;;;;;;5065781;28;20488;-82
2022/04/27 09:34:00;;;;;;;6.30;4.33;;;28.40;54.90;;;;;;5055396;28;20447;-83
2022/04/27 09:36:28;;;;;;;6.60;4.37;;;29.00;54.40;;;;;;5061872;28;20452;-82
2022/04/27 09:38:56;;;;;;;7.20;4.50;;;29.00;58.30;;;;;;5060952;28;20964;-79
2022/04/27 09:41:42;;;;;;;8.70;4.80;;;30.60;55.00;;;;;;5063046;28;20479;-83
2022/04/27 09:44:27;;;;;;;5.40;4.90;;;29.00;58.10;;;;;;5063539;28;20444;-83
2022/04/27 09:46:54;;;;;;;7.80;4.00;;;28.60;52.50;;;;;;5062111;28;20517;-81
2022/04/27 09:49:21;;;;;;;5.60;4.60;;;28.70;53.80;;;;;;5061510;28;20455;-79
2022/04/27 09:51:50;;;;;;;6.47;4.30;;;29.20;57.20;;;;;;5063322;28;20472;-83
2022/04/27 09:54:19;;;;;;;5.53;4.57;;;29.20;55.10;;;;;;5064527;28;20459;-81
2022/04/27 09:56:51;;;;;;;12.33;11.00;;;30.40;64.20;;;;;;5060616;28;20458;-84
2022/04/27 09:59:21;;;;;;;7.10;5.27;;;30.00;53.80;;;;;;5067235;28;20452;-79
2022/04/27 10:01:50;;;;;;;7.53;5.57;;;29.40;52.40;;;;;;5067691;28;20472;-81
2022/04/27 10:04:21;;;;;;;196.67;185.30;;;30.80;50.60;;;;;;5066649;28;20456;-81
2022/04/27 10:06:49;;;;;;;16.47;14.73;;;31.50;63.60;;;;;;5068412;28;20458;-81
2022/04/27 10:09:16;;;;;;;7.70;5.93;;;31.00;57.80;;;;;;5060239;28;20495;-82
2022/04/27 10:11:44;;;;;;;7.73;6.40;;;31.20;65.60;;;;;;5067045;28;20537;-80
2022/04/27 10:14:11;;;;;;;5.90;5.20;;;31.60;59.30;;;;;;5068767;28;20974;-81
2022/04/27 10:16:40;;;;;;;7.57;6.83;;;31.00;52.00;;;;;;5066893;28;20787;-82
2022/04/27 10:19:10;;;;;;;5.57;4.90;;;30.90;51.40;;;;;;5063667;28;20456;-82
2022/04/27 10:21:43;;;;;;;101.43;93.60;;;32.40;57.00;;;;;;5061076;28;20865;-80
2022/04/27 10:24:10;;;;;;;64.50;58.00;;;32.50;50.10;;;;;;5064060;28;20503;-81
2022/04/27 10:26:37;;;;;;;8.00;4.37;;;34.70;54.70;;;;;;5064354;28;20458;-82
2022/04/27 10:29:10;;;;;;;7.40;5.77;;;34.60;47.90;;;;;;5062257;28;20833;-79
2022/04/27 10:32:02;;;;;;;24.53;21.97;;;33.80;57.20;;;;;;5065841;28;20482;-79
2022/04/27 10:34:29;;;;;;;7.43;6.30;;;33.20;49.40;;;;;;5064065;28;20455;-80
2022/04/27 10:36:57;;;;;;;8.77;7.87;;;33.50;44.40;;;;;;5059450;28;21001;-78
2022/04/27 10:39:25;;;;;;;7.77;6.33;;;32.20;47.00;;;;;;5055513;28;20447;-82
2022/04/27 10:42:31;;;;;;;8.43;7.37;;;32.10;49.70;;;;;;5055772;28;20476;-78
2022/04/27 10:45:08;;;;;;;12.10;8.60;;;32.30;45.70;;;;;;5058647;28;20459;-80
2022/04/27 10:47:38;;;;;;;12.70;8.77;;;32.70;48.20;;;;;;5057726;28;20443;-80
2022/04/27 10:50:26;;;;;;;783.53;728.87;;;32.40;56.00;;;;;;5067838;28;20534;-81
2022/04/27 10:52:55;;;;;;;810.80;752.50;;;32.30;50.20;;;;;;5058873;28;20480;-80
2022/04/27 10:56:01;;;;;;;332.27;309.27;;;32.40;44.90;;;;;;5065397;28;20447;-83
2022/04/27 10:58:33;;;;;;;8.90;8.00;;;33.50;49.30;;;;;;5050695;28;20448;-81
2022/04/27 11:01:25;;;;;;;8.50;6.43;;;32.30;52.00;;;;;;5067650;28;20483;-81
2022/04/27 11:04:07;;;;;;;9.67;6.40;;;32.80;44.70;;;;;;5066146;28;20491;-80
2022/04/27 11:07:20;;;;;;;6.70;4.63;;;33.20;51.20;;;;;;5059719;28;20448;-82
2022/04/27 11:10:15;;;;;;;7.67;5.40;;;32.80;50.60;;;;;;5063196;28;20455;-80
2022/04/27 11:12:46;;;;;;;33.13;30.87;;;33.90;45.30;;;;;;5064720;28;20555;-82
2022/04/27 11:15:18;;;;;;;16.87;15.63;;;33.30;64.20;;;;;;5066303;28;20505;-83
2022/04/27 11:17:45;;;;;;;35.60;33.33;;;33.50;43.50;;;;;;5063557;28;20534;-82
2022/04/27 11:20:32;;;;;;;7.60;5.50;;;34.00;52.70;;;;;;5062884;28;20452;-81
2022/04/27 11:23:00;;;;;;;5.40;4.83;;;34.00;46.40;;;;;;5064291;28;20518;-81
2022/04/27 11:25:30;;;;;;;5.77;5.00;;;34.20;48.30;;;;;;5066226;28;20534;-80
2022/04/27 11:27:57;;;;;;;6.70;4.40;;;34.30;44.70;;;;;;5065270;28;20462;-80
2022/04/27 11:30:26;;;;;;;7.57;5.40;;;34.60;47.70;;;;;;5063918;28;20455;-79
2022/04/27 11:32:53;;;;;;;8.07;6.10;;;31.10;45.50;;;;;;5064669;28;20494;-82
2022/04/27 11:35:26;;;;;;;7.53;5.50;;;28.60;55.20;;;;;;5059286;28;20539;-78
2022/04/27 11:37:56;;;;;;;8.80;7.40;;;27.20;59.40;;;;;;5065428;28;20474;-83
2022/04/27 11:40:27;;;;;;;6.20;5.30;;;26.20;48.40;;;;;;5044672;28;20452;-82
2022/04/27 11:42:54;;;;;;;6.00;5.40;;;26.20;48.50;;;;;;5058947;28;20991;-82
2022/04/27 11:45:22;;;;;;;7.47;5.20;;;25.40;49.10;;;;;;5061676;28;20837;-81
2022/04/27 11:47:57;;;;;;;6.50;5.63;;;24.40;50.10;;;;;;5063031;28;20460;-84
2022/04/27 11:50:24;;;;;;;6.53;5.23;;;23.60;55.00;;;;;;5063973;28;20454;-81
2022/04/27 11:53:01;;;;;;;6.90;5.47;;;23.80;53.30;;;;;;5059749;28;20468;-82
2022/04/27 11:55:28;;;;;;;5.60;4.97;;;24.90;55.40;;;;;;5091306;22;20454;-82
2022/04/27 11:57:55;;;;;;;6.30;5.70;;;27.50;55.00;;;;;;5069199;28;20432;-81
2022/04/27 12:00:25;;;;;;;7.17;5.13;;;30.00;48.00;;;;;;5066313;28;20526;-81
2022/04/27 12:02:53;;;;;;;6.93;6.23;;;31.60;46.10;;;;;;5064496;28;20537;-82
2022/04/27 12:05:29;;;;;;;5.80;5.03;;;31.40;45.10;;;;;;5066364;28;20451;-82
2022/04/27 12:07:56;;;;;;;6.10;5.50;;;31.30;45.70;;;;;;5067545;28;20447;-83
2022/04/27 12:10:24;;;;;;;8.40;5.90;;;30.20;48.20;;;;;;5065993;28;20440;-81
2022/04/27 12:12:51;;;;;;;6.70;5.40;;;31.50;45.00;;;;;;5067803;28;20455;-82
2022/04/27 12:15:25;;;;;;;6.20;5.47;;;33.00;44.70;;;;;;5066925;28;20920;-82
2022/04/27 12:17:53;;;;;;;7.50;5.57;;;33.10;44.30;;;;;;5067323;28;20873;-83
2022/04/27 12:20:30;;;;;;;5.70;5.20;;;34.50;42.50;;;;;;5067127;28;20473;-83
2022/04/27 12:22:59;;;;;;;5.40;4.90;;;35.20;44.40;;;;;;5067358;28;20498;-84
2022/04/27 12:25:35;;;;;;;7.80;5.37;;;35.80;43.20;;;;;;5065704;28;20448;-81
2022/04/27 12:28:04;;;;;;;6.50;5.77;;;36.50;44.30;;;;;;5062646;28;20482;-82
2022/04/27 12:30:31;;;;;;;8.10;5.13;;;35.60;41.10;;;;;;5061964;28;20456;-83
2022/04/27 12:32:59;;;;;;;4.93;4.40;;;35.60;40.80;;;;;;5063417;28;20523;-81
2022/04/27 12:38:18;;;;;;;6.27;5.40;;;35.30;53.50;;;;;;5046181;28;20428;-82
2022/04/27 12:40:47;;;;;;;7.40;6.80;;;35.40;42.30;;;;;;5059794;28;20454;-81
2022/04/27 12:43:15;;;;;;;6.87;6.27;;;35.70;41.00;;;;;;5064252;28;20614;-83
2022/04/27 12:46:03;;;;;;;6.20;5.40;;;37.10;41.90;;;;;;5064274;28;20484;-82
2022/04/27 12:48:31;;;;;;;5.77;5.17;;;35.70;39.10;;;;;;5065172;28;20480;-82
2022/04/27 12:50:59;;;;;;;7.70;6.80;;;34.90;41.10;;;;;;5064615;28;20512;-83
2022/04/27 12:53:26;;;;;;;8.53;6.83;;;31.10;40.10;;;;;;5063895;28;20462;-82
2022/04/27 12:56:15;;;;;;;5.67;5.17;;;31.50;42.60;;;;;;5062811;28;20471;-80
2022/04/27 12:58:42;;;;;;;7.17;6.47;;;31.80;43.70;;;;;;5063422;28;20462;-82
2022/04/27 13:01:27;;;;;;;6.33;5.67;;;34.00;42.50;;;;;;5066669;28;20467;-82
2022/04/27 13:03:54;;;;;;;7.80;6.10;;;35.60;48.60;;;;;;5064409;28;20485;-83
2022/04/27 13:06:22;;;;;;;11.50;10.33;;;34.50;40.60;;;;;;5066794;28;20472;-81
2022/04/27 13:08:49;;;;;;;6.37;5.80;;;34.30;39.80;;;;;;5066192;28;20467;-82
2022/04/27 13:14:03;;;;;;;7.67;6.97;;;34.60;41.40;;;;;;5057626;28;20482;-82
2022/04/27 13:16:30;;;;;;;8.17;7.30;;;33.90;39.40;;;;;;5072208;28;20495;-80
2022/04/27 13:18:57;;;;;;;8.20;7.30;;;33.60;39.50;;;;;;5072762;28;20496;-82
2022/04/27 13:21:23;;;;;;;8.10;7.00;;;32.00;41.20;;;;;;5072132;28;20452;-82
2022/04/27 13:23:50;;;;;;;6.40;5.80;;;31.30;43.60;;;;;;5072300;28;20556;-82